Grande Portogallo — IBZW — position and weather

sailwx.info

Track history (hours):
 
Tides and Currents Weather Stations Pressure Air Temp Water Temp Dewpoint Dewpoint Depression Visibility Wind Speed Wind Dir Waves Ship Positions

Grande Portogallo

Last reported at 2015-May-23 09:33 UTC. Time now 2015-May-23 10:22 UTC.
Position N 37°21' W 009°43'.

Length 176 m; draft 7.6 m.

Type: Cargo ship. MMSI: 247065500.

Date/timePositionNaut miles runAvg speedWind from/ knotsBaromVisibWave heightAir tempDewpointWater temp
2015-May-23 09:33N 37°21' W 009°43'1616.5
2015-May-23 08:34N 37°38' W 009°47'1716.8
2015-May-23 07:33N 37°54' W 009°51'1716.5
2015-May-23 06:33N 38°10' W 009°56'1716.5
2015-May-23 05:33N 38°26' W 010°01'1716.5
2015-May-23 04:33N 38°42' W 010°06'1616.1
2015-May-23 03:33N 38°58' W 010°07'1616.0
2015-May-23 02:33N 39°14' W 010°06'1716.7
2015-May-23 01:33N 39°31' W 010°07'1616.4
2015-May-23 00:33N 39°47' W 010°07'1616.4
2015-May-22 23:33N 40°04' W 010°08'  
2015-May-20 19:09N 50°08' W 002°04'2715.4
2015-May-20 17:25N 50°15' W 001°24'2418.0
2015-May-20 16:05N 50°22' W 000°48'2917.2
2015-May-20 14:26N 50°30' W 000°05'1415.9
2015-May-20 13:33N 50°33' E 000°16'1514.7
2015-May-20 12:33N 50°38' E 000°38'2914.3
2015-May-20 10:33N 50°56' E 001°13'1717.4
2015-May-20 09:34N 51°07' E 001°34'1818.1
2015-May-20 08:33N 51°21' E 001°54'1413.5
2015-May-20 07:34N 51°21' E 002°15'1615.9
2015-May-20 06:34N 51°23' E 002°41'1414.1
2015-May-20 05:33N 51°25' E 003°03'1616.2
2015-May-20 04:33N 51°25' E 003°29'9 9.4
2015-May-20 03:33N 51°23' E 003°44'1111.1
2015-May-20 02:33N 51°26' E 004°01'8 8.0
2015-May-20 01:34N 51°23' E 004°13'7 7.4
2015-May-20 00:33N 51°17' E 004°19'2 2.1
2015-May-19 23:33N 51°16' E 004°17'2 2.4
2015-May-19 22:33N 51°16' E 004°13'0 0.2
2015-May-19 21:32N 51°16' E 004°13'0 0.0
2015-May-19 20:32N 51°16' E 004°13'0 0.0
2015-May-19 19:20N 51°16' E 004°13'0 0.0
2015-May-19 18:29N 51°16' E 004°13'0 0.0
2015-May-19 17:32N 51°16' E 004°13'0 0.0
2015-May-19 16:32N 51°16' E 004°13'0 0.0
2015-May-19 15:32N 51°16' E 004°13'0 0.0
2015-May-19 14:32N 51°16' E 004°13'0 0.0
2015-May-19 13:23N 51°16' E 004°13'0 0.0
2015-May-19 12:32N 51°16' E 004°13'0 0.0
2015-May-19 11:32N 51°16' E 004°13'0 0.0
2015-May-19 10:29N 51°16' E 004°13'0 0.0
2015-May-19 09:20N 51°16' E 004°13'0 0.0
2015-May-19 08:32N 51°16' E 004°13'0 0.1
2015-May-19 07:33N 51°16' E 004°13'2 2.5
2015-May-19 06:33N 51°16' E 004°17'2 1.8
2015-May-19 05:34N 51°17' E 004°19'8 8.1
2015-May-19 04:33N 51°24' E 004°12'8 8.4
2015-May-19 03:34N 51°26' E 003°60'1010.3
2015-May-19 02:34N 51°22' E 003°45'6 5.9
2015-May-19 01:31N 51°28' E 003°41'0 0.0
2015-May-19 00:31N 51°28' E 003°41'0 0.0
2015-May-18 23:31N 51°28' E 003°41'0 0.0
2015-May-18 22:31N 51°28' E 003°41'0 0.0
2015-May-18 21:31N 51°28' E 003°41'0 0.0
2015-May-18 20:31N 51°28' E 003°41'0 0.0
2015-May-18 19:31N 51°28' E 003°41'0 0.0
2015-May-18 18:31N 51°28' E 003°41'1 1.5
2015-May-18 17:33N 51°27' E 003°40'1010.3
2015-May-18 16:33N 51°24' E 003°23'1414.0
2015-May-18 15:33N 51°24' E 003°01'1312.4
2015-May-18 14:33N 51°22' E 002°41'8 7.6
2015-May-18 13:31N 51°22' E 002°29'8 7.9
2015-May-18 12:33N 51°18' E 002°18'1111.5
2015-May-18 11:34N 51°12' E 002°02'1817.6
2015-May-18 10:34N 51°02' E 001°40'3916.2
2015-May-18 08:08N 50°32' E 000°59'1016.4
2015-May-18 07:30N 50°28' E 000°44'4714.2
2015-May-18 04:10N 50°30' W 000°30'814.0
2015-May-18 03:33N 50°34' W 000°42'1312.8
2015-May-18 02:34N 50°42' W 000°58'1414.3
2015-May-18 01:33N 50°47' W 001°19'8 7.4
2015-May-18 00:31N 50°54' W 001°25'0 0.0
2015-May-17 21:22N 50°54' W 001°25'0 0.0
2015-May-17 20:31N 50°54' W 001°25'0 0.0
2015-May-17 19:31N 50°54' W 001°25'0 0.0
2015-May-17 16:31N 50°54' W 001°25'0 0.0
2015-May-17 15:13N 50°54' W 001°25'0 0.0
2015-May-17 14:07N 50°54' W 001°25'2 0.6
2015-May-17 11:33N 50°53' W 001°24'10 9.8
2015-May-17 10:33N 50°46' W 001°13'1211.6
2015-May-17 09:33N 50°38' W 000°59'6 6.1
2015-May-17 08:33N 50°33' W 001°02'1111.4
2015-May-17 07:33N 50°29' W 001°19'5513.8
2015-May-17 03:34N 50°16' W 002°43'1515.1
2015-May-17 02:34N 50°12' W 003°06'1514.4
2015-May-17 01:32N 50°08' W 003°28'  
2015-May-14 21:31N 39°09' W 009°51'1413.7
2015-May-14 20:29N 38°54' W 009°52'1413.5
2015-May-14 19:26N 38°40' W 009°51'1213.1
2015-May-14 18:32N 38°29' W 009°47'1313.4
2015-May-14 17:32N 38°16' W 009°43'1313.4
2015-May-14 16:33N 38°03' W 009°39'1313.4
2015-May-14 15:33N 37°50' W 009°35'1413.6
2015-May-14 14:32N 37°37' W 009°31'1514.1
2015-May-14 13:29N 37°22' W 009°27'2613.5
2015-May-14 11:33N 36°57' W 009°19'1312.8
2015-May-14 10:33N 36°46' W 009°10'1413.5
2015-May-14 09:33N 36°41' W 008°54'1414.0
2015-May-14 08:33N 36°37' W 008°38'1414.1
2015-May-14 07:34N 36°32' W 008°21'1413.9
2015-May-14 06:33N 36°28' W 008°05'1714.3
2015-May-14 05:23N 36°22' W 007°45'11214.3
2015-May-13 21:33N 35°59' W 005°29'1514.7
2015-May-13 20:33N 36°03' W 005°11'8814.6
2015-May-13 14:31N 36°17' W 003°23'1415.0
2015-May-13 13:34N 36°20' W 003°06'1615.2
2015-May-13 12:31N 36°22' W 002°46'1515.2
2015-May-13 11:33N 36°24' W 002°28'1515.2
2015-May-13 10:33N 36°27' W 002°10'1515.4
2015-May-13 09:33N 36°37' W 001°55'  
Track history (hours):
 
Tides and Currents Weather Stations Pressure Air Temp Water Temp Dewpoint Dewpoint Depression Visibility Wind Speed Wind Dir Waves Ship Positions

Grande Portogallo

Last reported at 2015-May-23 09:33 UTC. Time now 2015-May-23 10:22 UTC.
Position N 37°21' W 009°43'.

Length 176 m; draft 7.6 m.

Type: Cargo ship. MMSI: 247065500.

Date/timePositionNaut miles runAvg speedWind from/ knotsBaromVisibWave heightAir tempDewpointWater temp
2015-May-23 09:33N 37°21' W 009°43'1616.5
2015-May-23 08:34N 37°38' W 009°47'1716.8
2015-May-23 07:33N 37°54' W 009°51'1716.5
2015-May-23 06:33N 38°10' W 009°56'1716.5
2015-May-23 05:33N 38°26' W 010°01'1716.5
2015-May-23 04:33N 38°42' W 010°06'1616.1
2015-May-23 03:33N 38°58' W 010°07'1616.0
2015-May-23 02:33N 39°14' W 010°06'1716.7
2015-May-23 01:33N 39°31' W 010°07'1616.4
2015-May-23 00:33N 39°47' W 010°07'1616.4
2015-May-22 23:33N 40°04' W 010°08'  
2015-May-20 19:09N 50°08' W 002°04'2715.4
2015-May-20 17:25N 50°15' W 001°24'2418.0
2015-May-20 16:05N 50°22' W 000°48'2917.2
2015-May-20 14:26N 50°30' W 000°05'1415.9
2015-May-20 13:33N 50°33' E 000°16'1514.7
2015-May-20 12:33N 50°38' E 000°38'2914.3
2015-May-20 10:33N 50°56' E 001°13'1717.4
2015-May-20 09:34N 51°07' E 001°34'1818.1
2015-May-20 08:33N 51°21' E 001°54'1413.5
2015-May-20 07:34N 51°21' E 002°15'1615.9
2015-May-20 06:34N 51°23' E 002°41'1414.1
2015-May-20 05:33N 51°25' E 003°03'1616.2
2015-May-20 04:33N 51°25' E 003°29'9 9.4
2015-May-20 03:33N 51°23' E 003°44'1111.1
2015-May-20 02:33N 51°26' E 004°01'8 8.0
2015-May-20 01:34N 51°23' E 004°13'7 7.4
2015-May-20 00:33N 51°17' E 004°19'2 2.1
2015-May-19 23:33N 51°16' E 004°17'2 2.4
2015-May-19 22:33N 51°16' E 004°13'0 0.2
2015-May-19 21:32N 51°16' E 004°13'0 0.0
2015-May-19 20:32N 51°16' E 004°13'0 0.0
2015-May-19 19:20N 51°16' E 004°13'0 0.0
2015-May-19 18:29N 51°16' E 004°13'0 0.0
2015-May-19 17:32N 51°16' E 004°13'0 0.0
2015-May-19 16:32N 51°16' E 004°13'0 0.0
2015-May-19 15:32N 51°16' E 004°13'0 0.0
2015-May-19 14:32N 51°16' E 004°13'0 0.0
2015-May-19 13:23N 51°16' E 004°13'0 0.0
2015-May-19 12:32N 51°16' E 004°13'0 0.0
2015-May-19 11:32N 51°16' E 004°13'0 0.0
2015-May-19 10:29N 51°16' E 004°13'0 0.0
2015-May-19 09:20N 51°16' E 004°13'0 0.0
2015-May-19 08:32N 51°16' E 004°13'0 0.1
2015-May-19 07:33N 51°16' E 004°13'2 2.5
2015-May-19 06:33N 51°16' E 004°17'2 1.8
2015-May-19 05:34N 51°17' E 004°19'8 8.1
2015-May-19 04:33N 51°24' E 004°12'8 8.4
2015-May-19 03:34N 51°26' E 003°60'1010.3
2015-May-19 02:34N 51°22' E 003°45'6 5.9
2015-May-19 01:31N 51°28' E 003°41'0 0.0
2015-May-19 00:31N 51°28' E 003°41'0 0.0
2015-May-18 23:31N 51°28' E 003°41'0 0.0
2015-May-18 22:31N 51°28' E 003°41'0 0.0
2015-May-18 21:31N 51°28' E 003°41'0 0.0
2015-May-18 20:31N 51°28' E 003°41'0 0.0
2015-May-18 19:31N 51°28' E 003°41'0 0.0
2015-May-18 18:31N 51°28' E 003°41'1 1.5
2015-May-18 17:33N 51°27' E 003°40'1010.3
2015-May-18 16:33N 51°24' E 003°23'1414.0
2015-May-18 15:33N 51°24' E 003°01'1312.4
2015-May-18 14:33N 51°22' E 002°41'8 7.6
2015-May-18 13:31N 51°22' E 002°29'8 7.9
2015-May-18 12:33N 51°18' E 002°18'1111.5
2015-May-18 11:34N 51°12' E 002°02'1817.6
2015-May-18 10:34N 51°02' E 001°40'3916.2
2015-May-18 08:08N 50°32' E 000°59'1016.4
2015-May-18 07:30N 50°28' E 000°44'4714.2
2015-May-18 04:10N 50°30' W 000°30'814.0
2015-May-18 03:33N 50°34' W 000°42'1312.8
2015-May-18 02:34N 50°42' W 000°58'1414.3
2015-May-18 01:33N 50°47' W 001°19'8 7.4
2015-May-18 00:31N 50°54' W 001°25'0 0.0
2015-May-17 21:22N 50°54' W 001°25'0 0.0
2015-May-17 20:31N 50°54' W 001°25'0 0.0
2015-May-17 19:31N 50°54' W 001°25'0 0.0
2015-May-17 16:31N 50°54' W 001°25'0 0.0
2015-May-17 15:13N 50°54' W 001°25'0 0.0
2015-May-17 14:07N 50°54' W 001°25'2 0.6
2015-May-17 11:33N 50°53' W 001°24'10 9.8
2015-May-17 10:33N 50°46' W 001°13'1211.6
2015-May-17 09:33N 50°38' W 000°59'6 6.1
2015-May-17 08:33N 50°33' W 001°02'1111.4
2015-May-17 07:33N 50°29' W 001°19'5513.8
2015-May-17 03:34N 50°16' W 002°43'1515.1
2015-May-17 02:34N 50°12' W 003°06'1514.4
2015-May-17 01:32N 50°08' W 003°28'  
2015-May-14 21:31N 39°09' W 009°51'1413.7
2015-May-14 20:29N 38°54' W 009°52'1413.5
2015-May-14 19:26N 38°40' W 009°51'1213.1
2015-May-14 18:32N 38°29' W 009°47'1313.4
2015-May-14 17:32N 38°16' W 009°43'1313.4
2015-May-14 16:33N 38°03' W 009°39'1313.4
2015-May-14 15:33N 37°50' W 009°35'1413.6
2015-May-14 14:32N 37°37' W 009°31'1514.1
2015-May-14 13:29N 37°22' W 009°27'2613.5
2015-May-14 11:33N 36°57' W 009°19'1312.8
2015-May-14 10:33N 36°46' W 009°10'1413.5
2015-May-14 09:33N 36°41' W 008°54'1414.0
2015-May-14 08:33N 36°37' W 008°38'1414.1
2015-May-14 07:34N 36°32' W 008°21'1413.9
2015-May-14 06:33N 36°28' W 008°05'1714.3
2015-May-14 05:23N 36°22' W 007°45'11214.3
2015-May-13 21:33N 35°59' W 005°29'1514.7
2015-May-13 20:33N 36°03' W 005°11'8814.6
2015-May-13 14:31N 36°17' W 003°23'1415.0
2015-May-13 13:34N 36°20' W 003°06'1615.2
2015-May-13 12:31N 36°22' W 002°46'1515.2
2015-May-13 11:33N 36°24' W 002°28'1515.2
2015-May-13 10:33N 36°27' W 002°10'1515.4
2015-May-13 09:33N 36°37' W 001°55'  

Dump ship's entire track history